sensor_id;sensor_type;location;lat;lon;timestamp;P1;durP1;ratioP1;P2;durP2;ratioP2
1693;SDS011;844;47.058;15.472;2022-10-31T00:02:00;13.43;;;10.07;;
1693;SDS011;844;47.058;15.472;2022-10-31T00:04:30;16.40;;;10.20;;
1693;SDS011;844;47.058;15.472;2022-10-31T00:06:59;14.83;;;8.93;;
1693;SDS011;844;47.058;15.472;2022-10-31T00:09:30;16.00;;;9.60;;
1693;SDS011;844;47.058;15.472;2022-10-31T00:11:59;17.60;;;10.63;;
1693;SDS011;844;47.058;15.472;2022-10-31T00:14:29;20.80;;;10.50;;
1693;SDS011;844;47.058;15.472;2022-10-31T00:16:58;9.83;;;8.83;;
1693;SDS011;844;47.058;15.472;2022-10-31T00:19:27;16.10;;;10.00;;
1693;SDS011;844;47.058;15.472;2022-10-31T00:21:57;17.20;;;8.23;;
1693;SDS011;844;47.058;15.472;2022-10-31T00:24:28;13.50;;;8.27;;
1693;SDS011;844;47.058;15.472;2022-10-31T00:26:57;9.33;;;7.67;;
1693;SDS011;844;47.058;15.472;2022-10-31T00:29:26;9.90;;;8.23;;
1693;SDS011;844;47.058;15.472;2022-10-31T00:31:55;11.93;;;8.13;;
1693;SDS011;844;47.058;15.472;2022-10-31T00:34:25;16.07;;;8.80;;
1693;SDS011;844;47.058;15.472;2022-10-31T00:36:54;10.80;;;9.03;;
1693;SDS011;844;47.058;15.472;2022-10-31T00:39:23;13.63;;;9.73;;
1693;SDS011;844;47.058;15.472;2022-10-31T00:41:55;11.40;;;8.80;;
1693;SDS011;844;47.058;15.472;2022-10-31T00:44:26;8.93;;;7.93;;
1693;SDS011;844;47.058;15.472;2022-10-31T00:46:55;14.67;;;8.03;;
1693;SDS011;844;47.058;15.472;2022-10-31T00:49:25;15.60;;;8.70;;
1693;SDS011;844;47.058;15.472;2022-10-31T00:51:54;10.47;;;7.23;;
1693;SDS011;844;47.058;15.472;2022-10-31T00:54:23;10.07;;;8.10;;
1693;SDS011;844;47.058;15.472;2022-10-31T00:56:55;9.87;;;6.67;;
1693;SDS011;844;47.058;15.472;2022-10-31T00:59:24;9.37;;;7.70;;
1693;SDS011;844;47.058;15.472;2022-10-31T01:01:54;10.97;;;7.33;;
1693;SDS011;844;47.058;15.472;2022-10-31T01:04:23;7.73;;;7.03;;
1693;SDS011;844;47.058;15.472;2022-10-31T01:06:53;11.07;;;8.37;;
1693;SDS011;844;47.058;15.472;2022-10-31T01:09:22;12.17;;;8.33;;
1693;SDS011;844;47.058;15.472;2022-10-31T01:11:51;8.27;;;7.50;;
1693;SDS011;844;47.058;15.472;2022-10-31T01:14:22;10.70;;;7.40;;
1693;SDS011;844;47.058;15.472;2022-10-31T01:16:52;10.93;;;6.93;;
1693;SDS011;844;47.058;15.472;2022-10-31T01:19:21;11.63;;;7.50;;
1693;SDS011;844;47.058;15.472;2022-10-31T01:21:51;10.87;;;6.33;;
1693;SDS011;844;47.058;15.472;2022-10-31T01:24:23;14.47;;;7.97;;
1693;SDS011;844;47.058;15.472;2022-10-31T01:26:52;9.97;;;7.73;;
1693;SDS011;844;47.058;15.472;2022-10-31T01:29:23;11.00;;;7.20;;
1693;SDS011;844;47.058;15.472;2022-10-31T01:31:52;13.83;;;8.00;;
1693;SDS011;844;47.058;15.472;2022-10-31T01:34:22;9.20;;;6.60;;
1693;SDS011;844;47.058;15.472;2022-10-31T01:36:51;8.30;;;6.60;;
1693;SDS011;844;47.058;15.472;2022-10-31T01:39:21;9.00;;;7.20;;
1693;SDS011;844;47.058;15.472;2022-10-31T01:41:51;11.93;;;7.73;;
1693;SDS011;844;47.058;15.472;2022-10-31T01:47:19;8.37;;;5.93;;
1693;SDS011;844;47.058;15.472;2022-10-31T01:49:56;9.70;;;6.13;;
1693;SDS011;844;47.058;15.472;2022-10-31T01:52:28;14.00;;;6.03;;
1693;SDS011;844;47.058;15.472;2022-10-31T01:55:01;9.17;;;7.20;;
1693;SDS011;844;47.058;15.472;2022-10-31T01:57:33;6.43;;;5.50;;
1693;SDS011;844;47.058;15.472;2022-10-31T02:00:06;6.90;;;5.80;;
1693;SDS011;844;47.058;15.472;2022-10-31T02:02:38;7.97;;;6.43;;
1693;SDS011;844;47.058;15.472;2022-10-31T02:05:09;9.63;;;6.70;;
1693;SDS011;844;47.058;15.472;2022-10-31T02:07:45;7.43;;;5.53;;
1693;SDS011;844;47.058;15.472;2022-10-31T02:10:21;7.73;;;5.80;;
1693;SDS011;844;47.058;15.472;2022-10-31T02:12:58;7.33;;;6.07;;
1693;SDS011;844;47.058;15.472;2022-10-31T02:15:31;10.87;;;6.67;;
1693;SDS011;844;47.058;15.472;2022-10-31T02:18:01;8.30;;;6.40;;
1693;SDS011;844;47.058;15.472;2022-10-31T02:20:32;11.43;;;6.90;;
1693;SDS011;844;47.058;15.472;2022-10-31T02:23:20;8.93;;;6.43;;
1693;SDS011;844;47.058;15.472;2022-10-31T02:26:13;7.67;;;6.97;;
1693;SDS011;844;47.058;15.472;2022-10-31T02:29:02;10.53;;;7.27;;
1693;SDS011;844;47.058;15.472;2022-10-31T02:31:42;10.97;;;8.00;;
1693;SDS011;844;47.058;15.472;2022-10-31T02:34:17;7.13;;;6.30;;
1693;SDS011;844;47.058;15.472;2022-10-31T02:36:50;15.43;;;6.50;;
1693;SDS011;844;47.058;15.472;2022-10-31T02:39:25;10.63;;;5.93;;
1693;SDS011;844;47.058;15.472;2022-10-31T02:42:02;6.40;;;5.37;;
1693;SDS011;844;47.058;15.472;2022-10-31T02:44:35;7.00;;;6.10;;
1693;SDS011;844;47.058;15.472;2022-10-31T02:47:08;8.83;;;6.93;;
1693;SDS011;844;47.058;15.472;2022-10-31T02:49:43;8.80;;;5.53;;
1693;SDS011;844;47.058;15.472;2022-10-31T02:52:17;9.27;;;6.60;;
1693;SDS011;844;47.058;15.472;2022-10-31T02:54:47;7.30;;;5.30;;
1693;SDS011;844;47.058;15.472;2022-10-31T02:57:18;7.03;;;5.83;;
1693;SDS011;844;47.058;15.472;2022-10-31T02:59:52;8.73;;;7.47;;
1693;SDS011;844;47.058;15.472;2022-10-31T03:05:26;10.77;;;7.40;;
1693;SDS011;844;47.058;15.472;2022-10-31T03:08:06;8.40;;;6.20;;
1693;SDS011;844;47.058;15.472;2022-10-31T03:10:41;8.93;;;7.87;;
1693;SDS011;844;47.058;15.472;2022-10-31T03:13:12;11.17;;;7.80;;
1693;SDS011;844;47.058;15.472;2022-10-31T03:15:53;10.40;;;8.10;;
1693;SDS011;844;47.058;15.472;2022-10-31T03:18:28;10.23;;;7.30;;
1693;SDS011;844;47.058;15.472;2022-10-31T03:21:01;14.20;;;8.20;;
1693;SDS011;844;47.058;15.472;2022-10-31T03:23:34;14.03;;;8.57;;
1693;SDS011;844;47.058;15.472;2022-10-31T03:26:05;11.17;;;7.03;;
1693;SDS011;844;47.058;15.472;2022-10-31T03:28:37;17.53;;;9.03;;
1693;SDS011;844;47.058;15.472;2022-10-31T03:31:16;9.40;;;7.40;;
1693;SDS011;844;47.058;15.472;2022-10-31T03:33:47;13.60;;;9.07;;
1693;SDS011;844;47.058;15.472;2022-10-31T03:36:18;9.77;;;7.43;;
1693;SDS011;844;47.058;15.472;2022-10-31T03:38:47;8.90;;;7.50;;
1693;SDS011;844;47.058;15.472;2022-10-31T03:41:19;9.57;;;7.57;;
1693;SDS011;844;47.058;15.472;2022-10-31T03:43:52;9.20;;;6.63;;
1693;SDS011;844;47.058;15.472;2022-10-31T03:46:24;8.67;;;7.20;;
1693;SDS011;844;47.058;15.472;2022-10-31T03:48:53;10.47;;;6.47;;
1693;SDS011;844;47.058;15.472;2022-10-31T03:51:25;9.30;;;5.90;;
1693;SDS011;844;47.058;15.472;2022-10-31T03:53:58;8.63;;;7.67;;
1693;SDS011;844;47.058;15.472;2022-10-31T03:56:33;8.27;;;7.27;;
1693;SDS011;844;47.058;15.472;2022-10-31T03:59:04;8.83;;;6.77;;
1693;SDS011;844;47.058;15.472;2022-10-31T04:01:36;7.13;;;5.93;;
1693;SDS011;844;47.058;15.472;2022-10-31T04:04:10;9.17;;;6.80;;
1693;SDS011;844;47.058;15.472;2022-10-31T04:06:41;12.53;;;6.67;;
1693;SDS011;844;47.058;15.472;2022-10-31T04:09:11;7.43;;;6.60;;
1693;SDS011;844;47.058;15.472;2022-10-31T04:11:42;7.93;;;6.20;;
1693;SDS011;844;47.058;15.472;2022-10-31T04:14:13;11.73;;;6.60;;
1693;SDS011;844;47.058;15.472;2022-10-31T04:16:43;11.80;;;7.43;;
1693;SDS011;844;47.058;15.472;2022-10-31T04:19:13;9.00;;;5.90;;
1693;SDS011;844;47.058;15.472;2022-10-31T04:21:46;7.90;;;5.70;;
1693;SDS011;844;47.058;15.472;2022-10-31T04:24:16;11.03;;;7.03;;
1693;SDS011;844;47.058;15.472;2022-10-31T04:26:45;10.87;;;5.97;;
1693;SDS011;844;47.058;15.472;2022-10-31T04:29:14;6.93;;;6.17;;
1693;SDS011;844;47.058;15.472;2022-10-31T04:31:44;6.03;;;5.43;;
1693;SDS011;844;47.058;15.472;2022-10-31T04:37:09;5.93;;;5.37;;
1693;SDS011;844;47.058;15.472;2022-10-31T04:39:38;7.63;;;6.07;;
1693;SDS011;844;47.058;15.472;2022-10-31T04:42:08;7.20;;;5.50;;
1693;SDS011;844;47.058;15.472;2022-10-31T04:44:37;7.33;;;5.03;;
1693;SDS011;844;47.058;15.472;2022-10-31T04:47:06;10.60;;;6.70;;
1693;SDS011;844;47.058;15.472;2022-10-31T04:49:36;6.47;;;5.87;;
1693;SDS011;844;47.058;15.472;2022-10-31T04:52:05;7.37;;;6.30;;
1693;SDS011;844;47.058;15.472;2022-10-31T04:54:36;6.23;;;5.63;;
1693;SDS011;844;47.058;15.472;2022-10-31T04:57:06;6.20;;;5.70;;
1693;SDS011;844;47.058;15.472;2022-10-31T04:59:35;7.30;;;5.70;;
1693;SDS011;844;47.058;15.472;2022-10-31T05:02:04;7.33;;;4.77;;
1693;SDS011;844;47.058;15.472;2022-10-31T05:04:33;8.03;;;5.90;;
1693;SDS011;844;47.058;15.472;2022-10-31T05:07:03;7.00;;;5.60;;
1693;SDS011;844;47.058;15.472;2022-10-31T05:09:32;6.30;;;5.70;;
1693;SDS011;844;47.058;15.472;2022-10-31T05:12:03;7.33;;;4.97;;
1693;SDS011;844;47.058;15.472;2022-10-31T05:14:32;8.03;;;5.37;;
1693;SDS011;844;47.058;15.472;2022-10-31T05:17:02;8.87;;;6.53;;
1693;SDS011;844;47.058;15.472;2022-10-31T05:19:32;8.83;;;5.33;;
1693;SDS011;844;47.058;15.472;2022-10-31T05:22:01;11.80;;;7.10;;
1693;SDS011;844;47.058;15.472;2022-10-31T05:24:30;8.00;;;5.20;;
1693;SDS011;844;47.058;15.472;2022-10-31T05:27:00;8.17;;;6.27;;
1693;SDS011;844;47.058;15.472;2022-10-31T05:29:31;7.17;;;5.57;;
1693;SDS011;844;47.058;15.472;2022-10-31T05:32:01;7.13;;;5.90;;
1693;SDS011;844;47.058;15.472;2022-10-31T05:34:30;7.47;;;6.03;;
1693;SDS011;844;47.058;15.472;2022-10-31T05:37:00;9.90;;;6.63;;
1693;SDS011;844;47.058;15.472;2022-10-31T05:39:30;8.50;;;6.63;;
1693;SDS011;844;47.058;15.472;2022-10-31T05:41:59;9.70;;;6.70;;
1693;SDS011;844;47.058;15.472;2022-10-31T05:44:30;9.53;;;7.13;;
1693;SDS011;844;47.058;15.472;2022-10-31T05:47:00;10.77;;;7.33;;
1693;SDS011;844;47.058;15.472;2022-10-31T05:49:29;8.90;;;6.57;;
1693;SDS011;844;47.058;15.472;2022-10-31T05:51:59;9.33;;;7.70;;
1693;SDS011;844;47.058;15.472;2022-10-31T05:54:28;8.93;;;6.83;;
1693;SDS011;844;47.058;15.472;2022-10-31T05:56:58;10.07;;;7.37;;
1693;SDS011;844;47.058;15.472;2022-10-31T05:59:27;11.20;;;7.00;;
1693;SDS011;844;47.058;15.472;2022-10-31T06:01:58;8.90;;;6.90;;
1693;SDS011;844;47.058;15.472;2022-10-31T06:04:27;7.17;;;5.77;;
1693;SDS011;844;47.058;15.472;2022-10-31T06:06:57;9.13;;;6.70;;
1693;SDS011;844;47.058;15.472;2022-10-31T06:09:26;8.60;;;6.50;;
1693;SDS011;844;47.058;15.472;2022-10-31T06:11:55;10.90;;;6.37;;
1693;SDS011;844;47.058;15.472;2022-10-31T06:14:25;8.80;;;6.23;;
1693;SDS011;844;47.058;15.472;2022-10-31T06:16:54;8.47;;;6.67;;
1693;SDS011;844;47.058;15.472;2022-10-31T06:19:25;8.70;;;6.50;;
1693;SDS011;844;47.058;15.472;2022-10-31T06:21:55;11.77;;;7.13;;
1693;SDS011;844;47.058;15.472;2022-10-31T06:24:25;12.30;;;6.27;;
1693;SDS011;844;47.058;15.472;2022-10-31T06:26:54;10.40;;;6.90;;
1693;SDS011;844;47.058;15.472;2022-10-31T06:29:23;7.37;;;6.60;;
1693;SDS011;844;47.058;15.472;2022-10-31T06:31:53;8.57;;;5.97;;
1693;SDS011;844;47.058;15.472;2022-10-31T06:34:22;11.57;;;7.00;;
1693;SDS011;844;47.058;15.472;2022-10-31T06:36:53;15.10;;;7.13;;
1693;SDS011;844;47.058;15.472;2022-10-31T06:39:23;18.07;;;8.10;;
1693;SDS011;844;47.058;15.472;2022-10-31T06:41:52;7.27;;;6.60;;
1693;SDS011;844;47.058;15.472;2022-10-31T06:44:22;10.17;;;8.10;;
1693;SDS011;844;47.058;15.472;2022-10-31T06:46:52;9.33;;;8.13;;
1693;SDS011;844;47.058;15.472;2022-10-31T06:49:22;9.07;;;8.03;;
1693;SDS011;844;47.058;15.472;2022-10-31T06:51:54;9.70;;;7.40;;
1693;SDS011;844;47.058;15.472;2022-10-31T06:54:23;9.30;;;7.60;;
1693;SDS011;844;47.058;15.472;2022-10-31T06:56:53;9.83;;;8.70;;
1693;SDS011;844;47.058;15.472;2022-10-31T06:59:22;10.83;;;9.70;;
1693;SDS011;844;47.058;15.472;2022-10-31T07:01:54;11.63;;;9.03;;
1693;SDS011;844;47.058;15.472;2022-10-31T07:04:29;13.10;;;9.47;;
1693;SDS011;844;47.058;15.472;2022-10-31T07:07:03;12.93;;;10.80;;
1693;SDS011;844;47.058;15.472;2022-10-31T07:09:33;10.53;;;9.10;;
1693;SDS011;844;47.058;15.472;2022-10-31T07:12:05;15.17;;;9.97;;
1693;SDS011;844;47.058;15.472;2022-10-31T07:14:36;15.60;;;9.67;;
1693;SDS011;844;47.058;15.472;2022-10-31T07:17:07;11.67;;;8.70;;
1693;SDS011;844;47.058;15.472;2022-10-31T07:19:48;13.07;;;9.50;;
1693;SDS011;844;47.058;15.472;2022-10-31T07:25:23;9.60;;;8.60;;
1693;SDS011;844;47.058;15.472;2022-10-31T07:28:05;13.23;;;9.50;;
1693;SDS011;844;47.058;15.472;2022-10-31T07:30:56;11.67;;;10.53;;
1693;SDS011;844;47.058;15.472;2022-10-31T07:34:16;13.77;;;11.27;;
1693;SDS011;844;47.058;15.472;2022-10-31T07:37:30;11.97;;;10.87;;
1693;SDS011;844;47.058;15.472;2022-10-31T07:40:17;11.77;;;10.50;;
1693;SDS011;844;47.058;15.472;2022-10-31T07:43:07;11.83;;;10.73;;
1693;SDS011;844;47.058;15.472;2022-10-31T07:45:42;13.10;;;11.23;;
1693;SDS011;844;47.058;15.472;2022-10-31T07:48:34;10.17;;;9.27;;
1693;SDS011;844;47.058;15.472;2022-10-31T07:51:04;15.17;;;10.50;;
1693;SDS011;844;47.058;15.472;2022-10-31T07:53:50;16.80;;;10.27;;
1693;SDS011;844;47.058;15.472;2022-10-31T07:56:30;9.33;;;8.43;;
1693;SDS011;844;47.058;15.472;2022-10-31T07:59:00;11.57;;;10.50;;
1693;SDS011;844;47.058;15.472;2022-10-31T08:01:29;12.27;;;11.13;;
1693;SDS011;844;47.058;15.472;2022-10-31T08:03:59;9.33;;;8.37;;
1693;SDS011;844;47.058;15.472;2022-10-31T08:06:29;11.23;;;9.67;;
1693;SDS011;844;47.058;15.472;2022-10-31T08:08:59;19.43;;;10.40;;
1693;SDS011;844;47.058;15.472;2022-10-31T08:11:30;11.40;;;10.30;;
1693;SDS011;844;47.058;15.472;2022-10-31T08:13:59;12.33;;;11.00;;
1693;SDS011;844;47.058;15.472;2022-10-31T08:16:32;14.63;;;11.67;;
1693;SDS011;844;47.058;15.472;2022-10-31T08:19:02;12.20;;;10.97;;
1693;SDS011;844;47.058;15.472;2022-10-31T08:21:34;13.17;;;11.87;;
1693;SDS011;844;47.058;15.472;2022-10-31T08:24:04;13.00;;;11.70;;
1693;SDS011;844;47.058;15.472;2022-10-31T08:26:36;15.07;;;11.13;;
1693;SDS011;844;47.058;15.472;2022-10-31T08:29:06;14.50;;;10.70;;
1693;SDS011;844;47.058;15.472;2022-10-31T08:32:02;14.13;;;10.10;;
1693;SDS011;844;47.058;15.472;2022-10-31T08:34:32;10.20;;;9.30;;
1693;SDS011;844;47.058;15.472;2022-10-31T08:37:01;11.43;;;9.83;;
1693;SDS011;844;47.058;15.472;2022-10-31T08:39:31;14.57;;;10.23;;
1693;SDS011;844;47.058;15.472;2022-10-31T08:42:01;12.40;;;9.57;;
1693;SDS011;844;47.058;15.472;2022-10-31T08:44:31;10.30;;;9.30;;
1693;SDS011;844;47.058;15.472;2022-10-31T08:47:00;12.20;;;8.70;;
1693;SDS011;844;47.058;15.472;2022-10-31T08:49:30;12.00;;;9.40;;
1693;SDS011;844;47.058;15.472;2022-10-31T08:51:59;12.83;;;9.00;;
1693;SDS011;844;47.058;15.472;2022-10-31T08:54:30;12.37;;;9.43;;
1693;SDS011;844;47.058;15.472;2022-10-31T08:56:59;14.30;;;9.53;;
1693;SDS011;844;47.058;15.472;2022-10-31T08:59:30;8.60;;;6.40;;
1693;SDS011;844;47.058;15.472;2022-10-31T09:01:59;10.67;;;8.83;;
1693;SDS011;844;47.058;15.472;2022-10-31T09:04:29;8.37;;;7.50;;
1693;SDS011;844;47.058;15.472;2022-10-31T09:06:58;9.63;;;8.57;;
1693;SDS011;844;47.058;15.472;2022-10-31T09:09:46;12.67;;;8.27;;
1693;SDS011;844;47.058;15.472;2022-10-31T09:12:20;12.40;;;8.90;;
1693;SDS011;844;47.058;15.472;2022-10-31T09:14:56;10.43;;;8.30;;
1693;SDS011;844;47.058;15.472;2022-10-31T09:17:31;14.10;;;8.90;;
1693;SDS011;844;47.058;15.472;2022-10-31T09:20:08;10.43;;;9.33;;
1693;SDS011;844;47.058;15.472;2022-10-31T09:22:55;11.60;;;8.80;;
1693;SDS011;844;47.058;15.472;2022-10-31T09:25:25;15.60;;;9.30;;
1693;SDS011;844;47.058;15.472;2022-10-31T09:28:03;10.30;;;9.40;;
1693;SDS011;844;47.058;15.472;2022-10-31T09:30:45;12.00;;;9.07;;
1693;SDS011;844;47.058;15.472;2022-10-31T09:33:17;9.80;;;7.77;;
1693;SDS011;844;47.058;15.472;2022-10-31T09:35:47;24.50;;;9.53;;
1693;SDS011;844;47.058;15.472;2022-10-31T09:38:27;9.17;;;8.30;;
1693;SDS011;844;47.058;15.472;2022-10-31T09:41:01;9.57;;;8.30;;
1693;SDS011;844;47.058;15.472;2022-10-31T09:43:40;10.67;;;9.63;;
1693;SDS011;844;47.058;15.472;2022-10-31T09:46:16;12.67;;;8.97;;
1693;SDS011;844;47.058;15.472;2022-10-31T09:48:54;11.20;;;8.73;;
1693;SDS011;844;47.058;15.472;2022-10-31T09:51:33;12.37;;;8.83;;
1693;SDS011;844;47.058;15.472;2022-10-31T09:54:05;11.97;;;8.50;;
1693;SDS011;844;47.058;15.472;2022-10-31T09:56:39;8.20;;;7.00;;
1693;SDS011;844;47.058;15.472;2022-10-31T09:59:12;9.23;;;7.70;;
1693;SDS011;844;47.058;15.472;2022-10-31T10:01:54;10.30;;;7.10;;
1693;SDS011;844;47.058;15.472;2022-10-31T10:04:29;8.33;;;7.63;;
1693;SDS011;844;47.058;15.472;2022-10-31T10:07:05;8.13;;;7.07;;
1693;SDS011;844;47.058;15.472;2022-10-31T10:09:41;11.67;;;8.20;;
1693;SDS011;844;47.058;15.472;2022-10-31T10:12:13;8.07;;;7.00;;
1693;SDS011;844;47.058;15.472;2022-10-31T10:14:53;11.07;;;7.87;;
1693;SDS011;844;47.058;15.472;2022-10-31T10:17:34;7.77;;;6.93;;
1693;SDS011;844;47.058;15.472;2022-10-31T10:26:00;11.70;;;6.93;;
1693;SDS011;844;47.058;15.472;2022-10-31T10:41:32;9.50;;;7.53;;
1693;SDS011;844;47.058;15.472;2022-10-31T10:44:01;7.63;;;6.83;;
1693;SDS011;844;47.058;15.472;2022-10-31T10:46:40;9.20;;;6.40;;
1693;SDS011;844;47.058;15.472;2022-10-31T10:49:29;10.10;;;8.40;;
1693;SDS011;844;47.058;15.472;2022-10-31T10:52:05;10.13;;;6.80;;
1693;SDS011;844;47.058;15.472;2022-10-31T10:55:03;8.07;;;7.20;;
1693;SDS011;844;47.058;15.472;2022-10-31T11:00:30;10.27;;;7.40;;
1693;SDS011;844;47.058;15.472;2022-10-31T11:03:00;10.33;;;8.53;;
1693;SDS011;844;47.058;15.472;2022-10-31T11:05:33;8.07;;;7.23;;
1693;SDS011;844;47.058;15.472;2022-10-31T11:08:05;9.67;;;7.20;;
1693;SDS011;844;47.058;15.472;2022-10-31T11:10:35;11.20;;;7.17;;
1693;SDS011;844;47.058;15.472;2022-10-31T11:13:16;10.77;;;7.03;;
1693;SDS011;844;47.058;15.472;2022-10-31T11:15:51;13.33;;;7.70;;
1693;SDS011;844;47.058;15.472;2022-10-31T11:18:25;8.43;;;7.57;;
1693;SDS011;844;47.058;15.472;2022-10-31T11:20:56;16.87;;;7.13;;
1693;SDS011;844;47.058;15.472;2022-10-31T11:23:28;8.80;;;6.87;;
1693;SDS011;844;47.058;15.472;2022-10-31T11:25:58;12.43;;;7.60;;
1693;SDS011;844;47.058;15.472;2022-10-31T11:28:31;7.93;;;6.80;;
1693;SDS011;844;47.058;15.472;2022-10-31T11:31:05;9.47;;;7.73;;
1693;SDS011;844;47.058;15.472;2022-10-31T11:33:37;12.50;;;7.60;;
1693;SDS011;844;47.058;15.472;2022-10-31T11:36:14;10.00;;;7.97;;
1693;SDS011;844;47.058;15.472;2022-10-31T11:38:45;7.77;;;6.70;;
1693;SDS011;844;47.058;15.472;2022-10-31T11:41:15;7.27;;;6.57;;
1693;SDS011;844;47.058;15.472;2022-10-31T11:43:48;8.33;;;7.30;;
1693;SDS011;844;47.058;15.472;2022-10-31T11:46:20;6.60;;;5.90;;
1693;SDS011;844;47.058;15.472;2022-10-31T11:48:59;12.23;;;7.40;;
1693;SDS011;844;47.058;15.472;2022-10-31T11:51:28;7.57;;;6.60;;
1693;SDS011;844;47.058;15.472;2022-10-31T11:54:01;8.63;;;7.93;;
1693;SDS011;844;47.058;15.472;2022-10-31T11:56:41;9.43;;;7.00;;
1693;SDS011;844;47.058;15.472;2022-10-31T11:59:20;7.50;;;6.60;;
1693;SDS011;844;47.058;15.472;2022-10-31T12:01:52;11.33;;;6.83;;
1693;SDS011;844;47.058;15.472;2022-10-31T12:04:34;7.53;;;6.83;;
1693;SDS011;844;47.058;15.472;2022-10-31T12:07:08;7.00;;;6.30;;
1693;SDS011;844;47.058;15.472;2022-10-31T12:09:37;7.50;;;6.20;;
1693;SDS011;844;47.058;15.472;2022-10-31T12:15:13;7.80;;;7.00;;
1693;SDS011;844;47.058;15.472;2022-10-31T12:18:02;6.33;;;5.93;;
1693;SDS011;844;47.058;15.472;2022-10-31T12:21:00;11.20;;;6.80;;
1693;SDS011;844;47.058;15.472;2022-10-31T12:23:44;6.43;;;5.83;;
1693;SDS011;844;47.058;15.472;2022-10-31T12:26:21;9.20;;;6.37;;
1693;SDS011;844;47.058;15.472;2022-10-31T12:28:59;7.07;;;6.50;;
1693;SDS011;844;47.058;15.472;2022-10-31T12:31:52;6.37;;;5.90;;
1693;SDS011;844;47.058;15.472;2022-10-31T12:34:48;7.53;;;6.03;;
1693;SDS011;844;47.058;15.472;2022-10-31T12:37:31;6.43;;;5.83;;
1693;SDS011;844;47.058;15.472;2022-10-31T12:40:15;5.90;;;5.40;;
1693;SDS011;844;47.058;15.472;2022-10-31T12:42:54;7.93;;;7.00;;
1693;SDS011;844;47.058;15.472;2022-10-31T12:51:38;8.00;;;6.30;;
1693;SDS011;844;47.058;15.472;2022-10-31T12:54:22;6.50;;;5.93;;
1693;SDS011;844;47.058;15.472;2022-10-31T12:57:03;6.47;;;5.97;;
1693;SDS011;844;47.058;15.472;2022-10-31T12:59:38;8.10;;;6.10;;
1693;SDS011;844;47.058;15.472;2022-10-31T13:02:12;7.10;;;6.50;;
1693;SDS011;844;47.058;15.472;2022-10-31T13:04:46;10.10;;;6.37;;
1693;SDS011;844;47.058;15.472;2022-10-31T13:07:20;7.17;;;6.50;;
1693;SDS011;844;47.058;15.472;2022-10-31T13:09:54;9.53;;;6.00;;
1693;SDS011;844;47.058;15.472;2022-10-31T13:12:25;6.70;;;6.00;;
1693;SDS011;844;47.058;15.472;2022-10-31T13:15:04;7.87;;;7.07;;
1693;SDS011;844;47.058;15.472;2022-10-31T13:17:41;8.50;;;7.70;;
1693;SDS011;844;47.058;15.472;2022-10-31T13:20:16;15.30;;;7.20;;
1693;SDS011;844;47.058;15.472;2022-10-31T13:22:54;14.33;;;7.83;;
1693;SDS011;844;47.058;15.472;2022-10-31T13:25:27;7.00;;;6.20;;
1693;SDS011;844;47.058;15.472;2022-10-31T13:27:58;7.17;;;6.17;;
1693;SDS011;844;47.058;15.472;2022-10-31T13:30:30;8.00;;;6.27;;
1693;SDS011;844;47.058;15.472;2022-10-31T13:33:02;8.53;;;6.10;;
1693;SDS011;844;47.058;15.472;2022-10-31T13:35:39;6.80;;;6.10;;
1693;SDS011;844;47.058;15.472;2022-10-31T13:38:17;7.97;;;7.13;;
1693;SDS011;844;47.058;15.472;2022-10-31T13:40:51;10.13;;;6.70;;
1693;SDS011;844;47.058;15.472;2022-10-31T13:43:26;8.83;;;6.40;;
1693;SDS011;844;47.058;15.472;2022-10-31T13:45:58;7.17;;;6.57;;
1693;SDS011;844;47.058;15.472;2022-10-31T13:48:35;7.20;;;6.30;;
1693;SDS011;844;47.058;15.472;2022-10-31T13:51:07;7.77;;;6.97;;
1693;SDS011;844;47.058;15.472;2022-10-31T13:53:40;8.03;;;6.57;;
1693;SDS011;844;47.058;15.472;2022-10-31T13:56:16;6.20;;;5.70;;
1693;SDS011;844;47.058;15.472;2022-10-31T13:58:57;7.60;;;7.00;;
1693;SDS011;844;47.058;15.472;2022-10-31T14:01:29;6.73;;;6.13;;
1693;SDS011;844;47.058;15.472;2022-10-31T14:04:00;6.73;;;6.13;;
1693;SDS011;844;47.058;15.472;2022-10-31T14:06:41;9.83;;;7.63;;
1693;SDS011;844;47.058;15.472;2022-10-31T14:09:26;9.30;;;6.23;;
1693;SDS011;844;47.058;15.472;2022-10-31T14:11:59;8.27;;;6.40;;
1693;SDS011;844;47.058;15.472;2022-10-31T14:14:32;6.97;;;6.40;;
1693;SDS011;844;47.058;15.472;2022-10-31T14:17:16;6.53;;;5.93;;
1693;SDS011;844;47.058;15.472;2022-10-31T14:20:02;9.50;;;6.90;;
1693;SDS011;844;47.058;15.472;2022-10-31T14:31:53;7.90;;;7.20;;
1693;SDS011;844;47.058;15.472;2022-10-31T14:34:26;9.50;;;7.47;;
1693;SDS011;844;47.058;15.472;2022-10-31T14:39:57;8.70;;;6.20;;
1693;SDS011;844;47.058;15.472;2022-10-31T14:42:42;10.40;;;7.97;;
1693;SDS011;844;47.058;15.472;2022-10-31T14:45:28;9.07;;;7.30;;
1693;SDS011;844;47.058;15.472;2022-10-31T14:48:05;7.63;;;7.03;;
1693;SDS011;844;47.058;15.472;2022-10-31T14:50:47;7.70;;;6.93;;
1693;SDS011;844;47.058;15.472;2022-10-31T14:53:19;9.03;;;6.90;;
1693;SDS011;844;47.058;15.472;2022-10-31T14:55:51;9.00;;;7.40;;
1693;SDS011;844;47.058;15.472;2022-10-31T14:58:24;8.53;;;6.30;;
1693;SDS011;844;47.058;15.472;2022-10-31T15:00:58;8.20;;;7.50;;
1693;SDS011;844;47.058;15.472;2022-10-31T15:03:29;7.43;;;6.70;;
1693;SDS011;844;47.058;15.472;2022-10-31T15:06:02;8.67;;;7.60;;
1693;SDS011;844;47.058;15.472;2022-10-31T15:08:34;8.83;;;7.97;;
1693;SDS011;844;47.058;15.472;2022-10-31T15:11:09;8.60;;;7.43;;
1693;SDS011;844;47.058;15.472;2022-10-31T15:13:45;7.03;;;6.40;;
1693;SDS011;844;47.058;15.472;2022-10-31T15:16:16;7.60;;;6.80;;
1693;SDS011;844;47.058;15.472;2022-10-31T15:18:52;6.87;;;6.40;;
1693;SDS011;844;47.058;15.472;2022-10-31T15:21:23;8.00;;;7.10;;
1693;SDS011;844;47.058;15.472;2022-10-31T15:23:55;8.50;;;7.77;;
1693;SDS011;844;47.058;15.472;2022-10-31T15:26:27;8.50;;;7.67;;
1693;SDS011;844;47.058;15.472;2022-10-31T15:29:02;7.50;;;6.90;;
1693;SDS011;844;47.058;15.472;2022-10-31T15:31:34;7.93;;;7.33;;
1693;SDS011;844;47.058;15.472;2022-10-31T15:34:13;8.57;;;7.87;;
1693;SDS011;844;47.058;15.472;2022-10-31T15:36:55;8.87;;;7.77;;
1693;SDS011;844;47.058;15.472;2022-10-31T15:39:24;9.10;;;8.27;;
1693;SDS011;844;47.058;15.472;2022-10-31T15:41:54;8.37;;;7.77;;
1693;SDS011;844;47.058;15.472;2022-10-31T15:44:26;8.73;;;8.03;;
1693;SDS011;844;47.058;15.472;2022-10-31T15:46:58;8.17;;;7.40;;
1693;SDS011;844;47.058;15.472;2022-10-31T15:49:32;7.07;;;6.37;;
1693;SDS011;844;47.058;15.472;2022-10-31T15:52:04;8.13;;;7.33;;
1693;SDS011;844;47.058;15.472;2022-10-31T15:54:41;11.87;;;7.50;;
1693;SDS011;844;47.058;15.472;2022-10-31T15:57:14;8.20;;;7.33;;
1693;SDS011;844;47.058;15.472;2022-10-31T15:59:48;8.40;;;6.70;;
1693;SDS011;844;47.058;15.472;2022-10-31T16:02:23;7.27;;;6.47;;
1693;SDS011;844;47.058;15.472;2022-10-31T16:05:00;8.00;;;7.20;;
1693;SDS011;844;47.058;15.472;2022-10-31T16:07:48;7.70;;;6.10;;
1693;SDS011;844;47.058;15.472;2022-10-31T16:10:21;11.77;;;6.97;;
1693;SDS011;844;47.058;15.472;2022-10-31T16:12:52;7.83;;;7.23;;
1693;SDS011;844;47.058;15.472;2022-10-31T16:15:23;8.10;;;7.40;;
1693;SDS011;844;47.058;15.472;2022-10-31T16:17:53;7.80;;;7.13;;
1693;SDS011;844;47.058;15.472;2022-10-31T16:20:28;7.10;;;6.50;;
1693;SDS011;844;47.058;15.472;2022-10-31T16:23:11;7.93;;;7.37;;
1693;SDS011;844;47.058;15.472;2022-10-31T16:25:44;7.67;;;6.97;;
1693;SDS011;844;47.058;15.472;2022-10-31T16:28:17;7.70;;;6.90;;
1693;SDS011;844;47.058;15.472;2022-10-31T16:30:59;8.10;;;7.30;;
1693;SDS011;844;47.058;15.472;2022-10-31T16:33:29;8.70;;;7.90;;
1693;SDS011;844;47.058;15.472;2022-10-31T16:39:02;8.03;;;7.23;;
1693;SDS011;844;47.058;15.472;2022-10-31T16:41:31;8.20;;;7.50;;
1693;SDS011;844;47.058;15.472;2022-10-31T16:44:03;8.40;;;7.70;;
1693;SDS011;844;47.058;15.472;2022-10-31T16:46:35;10.80;;;7.50;;